Startpagina
METAR-TAF:

METAR-TAF

Vliegvelden :

Productieplatform

Goeree Le, Nederland

breedte: 51-55-33N, lengte: 3-40-12E, hoogte: 19 m

Actueel weer

Dit bericht is 30 minuten geleden gemaakt, om 07:55 UTC
Wind 16 kt uit het westen
Temperatuur 16°C
Vochtigheid 94%
Druk 1022 hPa
Zicht 10 km of meer

METAR: EHSC 190755Z AUTO 26016KT 9999 ///////// 16/15 Q1022 W16/H10

Tijdstip: 10:25 (08:25 UTC)


TAF: ontbreekt

Waarnemingen en weersverwachtingen van meer dan 4000 vliegvelden (METAR en TAF).

De beschikbare stations zijn de gele en rode punten op de kaart.

Ga met uw muis naar het station om de naam te zien.

Klik dan om waarnemingen en weersverwachtingen te zien.

kaart wijzigen: klik op de groene knoppen met een zwart kruis om in te zoomen, op de groene knop met een streepje om uit te zoomen of op de groene pijlen voor aangrenzende kaarten.


METAR-TAF: